sensor_id;sensor_type;location;lat;lon;timestamp;P1;durP1;ratioP1;P2;durP2;ratioP2
52992;SDS011;38875;52.216;21.040;2022-08-18T00:00:07;42.00;;;34.92;;
52992;SDS011;38875;52.216;21.040;2022-08-18T00:03:04;41.50;;;37.00;;
52992;SDS011;38875;52.216;21.040;2022-08-18T00:05:32;44.60;;;35.97;;
52992;SDS011;38875;52.216;21.040;2022-08-18T00:07:59;39.90;;;33.35;;
52992;SDS011;38875;52.216;21.040;2022-08-18T00:10:25;39.28;;;32.85;;
52992;SDS011;38875;52.216;21.040;2022-08-18T00:12:51;36.30;;;32.05;;
52992;SDS011;38875;52.216;21.040;2022-08-18T00:15:17;36.55;;;31.27;;
52992;SDS011;38875;52.216;21.040;2022-08-18T00:17:44;38.25;;;30.95;;
52992;SDS011;38875;52.216;21.040;2022-08-18T00:20:13;38.55;;;33.40;;
52992;SDS011;38875;52.216;21.040;2022-08-18T00:22:41;37.33;;;32.60;;
52992;SDS011;38875;52.216;21.040;2022-08-18T00:25:07;39.00;;;33.78;;
52992;SDS011;38875;52.216;21.040;2022-08-18T00:27:35;38.30;;;32.83;;
52992;SDS011;38875;52.216;21.040;2022-08-18T00:30:04;38.30;;;33.60;;
52992;SDS011;38875;52.216;21.040;2022-08-18T00:32:33;45.22;;;33.17;;
52992;SDS011;38875;52.216;21.040;2022-08-18T00:35:08;41.85;;;34.00;;
52992;SDS011;38875;52.216;21.040;2022-08-18T00:37:41;45.80;;;33.95;;
52992;SDS011;38875;52.216;21.040;2022-08-18T00:40:08;42.95;;;35.28;;
52992;SDS011;38875;52.216;21.040;2022-08-18T00:45:14;39.97;;;32.70;;
52992;SDS011;38875;52.216;21.040;2022-08-18T00:47:42;44.92;;;35.60;;
52992;SDS011;38875;52.216;21.040;2022-08-18T00:50:13;43.22;;;35.35;;
52992;SDS011;38875;52.216;21.040;2022-08-18T00:52:58;44.53;;;35.50;;
52992;SDS011;38875;52.216;21.040;2022-08-18T00:55:27;47.58;;;36.20;;
52992;SDS011;38875;52.216;21.040;2022-08-18T00:57:58;43.63;;;34.83;;
52992;SDS011;38875;52.216;21.040;2022-08-18T01:00:31;40.33;;;36.03;;
52992;SDS011;38875;52.216;21.040;2022-08-18T01:02:58;43.33;;;35.90;;
52992;SDS011;38875;52.216;21.040;2022-08-18T01:05:30;42.22;;;36.92;;
52992;SDS011;38875;52.216;21.040;2022-08-18T01:08:02;45.45;;;37.63;;
52992;SDS011;38875;52.216;21.040;2022-08-18T01:10:28;46.72;;;36.60;;
52992;SDS011;38875;52.216;21.040;2022-08-18T01:12:57;41.13;;;36.70;;
52992;SDS011;38875;52.216;21.040;2022-08-18T01:15:24;44.80;;;36.55;;
52992;SDS011;38875;52.216;21.040;2022-08-18T01:17:52;43.17;;;36.78;;
52992;SDS011;38875;52.216;21.040;2022-08-18T01:20:51;47.05;;;36.15;;
52992;SDS011;38875;52.216;21.040;2022-08-18T01:23:43;40.78;;;36.03;;
52992;SDS011;38875;52.216;21.040;2022-08-18T01:26:10;43.38;;;36.05;;
52992;SDS011;38875;52.216;21.040;2022-08-18T01:28:40;45.90;;;36.88;;
52992;SDS011;38875;52.216;21.040;2022-08-18T01:31:09;42.83;;;35.65;;
52992;SDS011;38875;52.216;21.040;2022-08-18T01:33:37;43.90;;;36.13;;
52992;SDS011;38875;52.216;21.040;2022-08-18T01:38:42;42.55;;;36.13;;
52992;SDS011;38875;52.216;21.040;2022-08-18T01:41:09;45.15;;;36.55;;
52992;SDS011;38875;52.216;21.040;2022-08-18T01:43:35;47.45;;;37.75;;
52992;SDS011;38875;52.216;21.040;2022-08-18T01:46:02;47.05;;;38.53;;
52992;SDS011;38875;52.216;21.040;2022-08-18T01:48:32;42.83;;;37.63;;
52992;SDS011;38875;52.216;21.040;2022-08-18T01:51:02;44.35;;;37.80;;
52992;SDS011;38875;52.216;21.040;2022-08-18T01:53:30;45.75;;;39.13;;
52992;SDS011;38875;52.216;21.040;2022-08-18T01:55:56;43.78;;;36.72;;
52992;SDS011;38875;52.216;21.040;2022-08-18T01:58:22;50.50;;;39.50;;
52992;SDS011;38875;52.216;21.040;2022-08-18T02:00:56;49.20;;;39.50;;
52992;SDS011;38875;52.216;21.040;2022-08-18T02:03:30;48.80;;;39.70;;
52992;SDS011;38875;52.216;21.040;2022-08-18T02:06:00;44.92;;;38.45;;
52992;SDS011;38875;52.216;21.040;2022-08-18T02:08:28;50.38;;;42.67;;
52992;SDS011;38875;52.216;21.040;2022-08-18T02:10:54;48.97;;;41.92;;
52992;SDS011;38875;52.216;21.040;2022-08-18T02:13:23;50.45;;;41.05;;
52992;SDS011;38875;52.216;21.040;2022-08-18T02:15:51;45.80;;;38.38;;
52992;SDS011;38875;52.216;21.040;2022-08-18T02:18:19;46.95;;;39.47;;
52992;SDS011;38875;52.216;21.040;2022-08-18T02:20:46;47.30;;;37.78;;
52992;SDS011;38875;52.216;21.040;2022-08-18T02:23:12;47.58;;;38.28;;
52992;SDS011;38875;52.216;21.040;2022-08-18T02:25:38;47.22;;;37.75;;
52992;SDS011;38875;52.216;21.040;2022-08-18T02:28:06;49.33;;;38.33;;
52992;SDS011;38875;52.216;21.040;2022-08-18T02:30:32;45.90;;;38.13;;
52992;SDS011;38875;52.216;21.040;2022-08-18T02:32:59;47.10;;;38.45;;
52992;SDS011;38875;52.216;21.040;2022-08-18T02:35:26;43.70;;;37.22;;
52992;SDS011;38875;52.216;21.040;2022-08-18T02:37:51;46.97;;;37.15;;
52992;SDS011;38875;52.216;21.040;2022-08-18T02:40:18;50.33;;;39.83;;
52992;SDS011;38875;52.216;21.040;2022-08-18T02:42:44;43.65;;;37.60;;
52992;SDS011;38875;52.216;21.040;2022-08-18T02:45:11;46.95;;;38.40;;
52992;SDS011;38875;52.216;21.040;2022-08-18T02:47:37;47.63;;;39.20;;
52992;SDS011;38875;52.216;21.040;2022-08-18T02:50:05;45.60;;;38.88;;
52992;SDS011;38875;52.216;21.040;2022-08-18T02:52:31;43.15;;;38.45;;
52992;SDS011;38875;52.216;21.040;2022-08-18T02:54:59;45.70;;;38.10;;
52992;SDS011;38875;52.216;21.040;2022-08-18T02:57:26;46.58;;;38.22;;
52992;SDS011;38875;52.216;21.040;2022-08-18T02:59:53;47.00;;;39.45;;
52992;SDS011;38875;52.216;21.040;2022-08-18T03:02:18;48.33;;;40.42;;
52992;SDS011;38875;52.216;21.040;2022-08-18T03:04:45;47.35;;;39.08;;
52992;SDS011;38875;52.216;21.040;2022-08-18T03:07:11;48.70;;;40.45;;
52992;SDS011;38875;52.216;21.040;2022-08-18T03:09:37;46.20;;;39.00;;
52992;SDS011;38875;52.216;21.040;2022-08-18T03:12:04;48.58;;;39.72;;
52992;SDS011;38875;52.216;21.040;2022-08-18T03:14:31;49.25;;;41.03;;
52992;SDS011;38875;52.216;21.040;2022-08-18T03:16:58;47.47;;;40.92;;
52992;SDS011;38875;52.216;21.040;2022-08-18T03:19:25;45.03;;;39.10;;
52992;SDS011;38875;52.216;21.040;2022-08-18T03:21:52;46.00;;;38.70;;
52992;SDS011;38875;52.216;21.040;2022-08-18T03:24:20;43.85;;;38.47;;
52992;SDS011;38875;52.216;21.040;2022-08-18T03:26:46;42.40;;;37.10;;
52992;SDS011;38875;52.216;21.040;2022-08-18T03:29:12;48.42;;;39.00;;
52992;SDS011;38875;52.216;21.040;2022-08-18T03:31:40;50.10;;;41.67;;
52992;SDS011;38875;52.216;21.040;2022-08-18T03:34:08;46.13;;;39.42;;
52992;SDS011;38875;52.216;21.040;2022-08-18T03:36:33;47.70;;;39.85;;
52992;SDS011;38875;52.216;21.040;2022-08-18T03:39:03;48.30;;;39.75;;
52992;SDS011;38875;52.216;21.040;2022-08-18T03:41:31;47.83;;;38.55;;
52992;SDS011;38875;52.216;21.040;2022-08-18T03:43:57;47.30;;;39.13;;
52992;SDS011;38875;52.216;21.040;2022-08-18T03:46:23;44.25;;;37.25;;
52992;SDS011;38875;52.216;21.040;2022-08-18T03:48:49;49.38;;;40.00;;
52992;SDS011;38875;52.216;21.040;2022-08-18T03:51:19;45.97;;;39.58;;
52992;SDS011;38875;52.216;21.040;2022-08-18T03:53:46;45.40;;;39.40;;
52992;SDS011;38875;52.216;21.040;2022-08-18T03:56:16;47.42;;;38.20;;
52992;SDS011;38875;52.216;21.040;2022-08-18T03:58:53;44.95;;;38.55;;
52992;SDS011;38875;52.216;21.040;2022-08-18T04:01:23;46.97;;;38.40;;
52992;SDS011;38875;52.216;21.040;2022-08-18T04:03:51;46.80;;;38.13;;
52992;SDS011;38875;52.216;21.040;2022-08-18T04:06:28;45.85;;;38.95;;
52992;SDS011;38875;52.216;21.040;2022-08-18T04:08:57;46.08;;;39.58;;
52992;SDS011;38875;52.216;21.040;2022-08-18T04:11:25;47.47;;;37.58;;
52992;SDS011;38875;52.216;21.040;2022-08-18T04:13:53;40.25;;;33.17;;
52992;SDS011;38875;52.216;21.040;2022-08-18T04:16:25;36.47;;;31.98;;
52992;SDS011;38875;52.216;21.040;2022-08-18T04:18:52;38.67;;;29.92;;
52992;SDS011;38875;52.216;21.040;2022-08-18T04:21:20;34.85;;;29.58;;
52992;SDS011;38875;52.216;21.040;2022-08-18T04:23:48;35.45;;;29.10;;
52992;SDS011;38875;52.216;21.040;2022-08-18T04:26:13;35.45;;;30.05;;
52992;SDS011;38875;52.216;21.040;2022-08-18T04:28:39;33.03;;;28.80;;
52992;SDS011;38875;52.216;21.040;2022-08-18T04:31:07;37.30;;;27.77;;
52992;SDS011;38875;52.216;21.040;2022-08-18T04:33:35;33.42;;;28.95;;
52992;SDS011;38875;52.216;21.040;2022-08-18T04:36:06;34.67;;;28.58;;
52992;SDS011;38875;52.216;21.040;2022-08-18T04:38:34;30.83;;;26.23;;
52992;SDS011;38875;52.216;21.040;2022-08-18T04:41:00;33.38;;;28.15;;
52992;SDS011;38875;52.216;21.040;2022-08-18T04:43:28;36.80;;;26.90;;
52992;SDS011;38875;52.216;21.040;2022-08-18T04:45:55;34.55;;;27.48;;
52992;SDS011;38875;52.216;21.040;2022-08-18T04:48:33;31.85;;;27.23;;
52992;SDS011;38875;52.216;21.040;2022-08-18T04:53:30;36.38;;;27.73;;
52992;SDS011;38875;52.216;21.040;2022-08-18T04:58:39;42.42;;;28.50;;
52992;SDS011;38875;52.216;21.040;2022-08-18T05:01:05;36.33;;;26.48;;
52992;SDS011;38875;52.216;21.040;2022-08-18T05:03:31;31.67;;;26.08;;
52992;SDS011;38875;52.216;21.040;2022-08-18T05:05:57;29.42;;;24.48;;
52992;SDS011;38875;52.216;21.040;2022-08-18T05:08:24;32.50;;;24.48;;
52992;SDS011;38875;52.216;21.040;2022-08-18T05:10:57;34.35;;;23.55;;
52992;SDS011;38875;52.216;21.040;2022-08-18T05:13:23;30.10;;;23.15;;
52992;SDS011;38875;52.216;21.040;2022-08-18T05:15:56;30.98;;;22.98;;
52992;SDS011;38875;52.216;21.040;2022-08-18T05:18:32;27.35;;;21.77;;
52992;SDS011;38875;52.216;21.040;2022-08-18T05:21:02;29.60;;;22.27;;
52992;SDS011;38875;52.216;21.040;2022-08-18T05:23:29;32.58;;;22.55;;
52992;SDS011;38875;52.216;21.040;2022-08-18T05:25:56;35.95;;;23.05;;
52992;SDS011;38875;52.216;21.040;2022-08-18T05:28:28;30.33;;;22.25;;
52992;SDS011;38875;52.216;21.040;2022-08-18T05:30:55;29.88;;;22.00;;
52992;SDS011;38875;52.216;21.040;2022-08-18T05:33:22;32.08;;;23.55;;
52992;SDS011;38875;52.216;21.040;2022-08-18T05:35:50;29.80;;;21.90;;
52992;SDS011;38875;52.216;21.040;2022-08-18T05:41:26;27.63;;;22.05;;
52992;SDS011;38875;52.216;21.040;2022-08-18T05:43:48;33.53;;;22.73;;
52992;SDS011;38875;52.216;21.040;2022-08-18T05:46:15;27.75;;;21.73;;
52992;SDS011;38875;52.216;21.040;2022-08-18T05:48:41;26.52;;;22.13;;
52992;SDS011;38875;52.216;21.040;2022-08-18T05:51:15;34.03;;;21.33;;
52992;SDS011;38875;52.216;21.040;2022-08-18T05:53:53;34.83;;;22.63;;
52992;SDS011;38875;52.216;21.040;2022-08-18T05:56:37;34.67;;;23.90;;
52992;SDS011;38875;52.216;21.040;2022-08-18T05:59:24;31.85;;;22.05;;
52992;SDS011;38875;52.216;21.040;2022-08-18T06:05:14;33.35;;;20.00;;
52992;SDS011;38875;52.216;21.040;2022-08-18T06:07:52;27.13;;;20.38;;
52992;SDS011;38875;52.216;21.040;2022-08-18T06:10:21;33.65;;;20.70;;
52992;SDS011;38875;52.216;21.040;2022-08-18T06:12:49;30.15;;;21.58;;
52992;SDS011;38875;52.216;21.040;2022-08-18T06:18:32;34.90;;;21.15;;
52992;SDS011;38875;52.216;21.040;2022-08-18T06:21:15;29.73;;;21.67;;
52992;SDS011;38875;52.216;21.040;2022-08-18T06:32:03;25.10;;;19.73;;
52992;SDS011;38875;52.216;21.040;2022-08-18T06:40:28;30.13;;;18.98;;
52992;SDS011;38875;52.216;21.040;2022-08-18T06:42:54;30.30;;;18.77;;
52992;SDS011;38875;52.216;21.040;2022-08-18T06:45:21;27.50;;;18.08;;
52992;SDS011;38875;52.216;21.040;2022-08-18T06:48:39;24.48;;;18.13;;
52992;SDS011;38875;52.216;21.040;2022-08-18T06:50:52;28.48;;;19.25;;
52992;SDS011;38875;52.216;21.040;2022-08-18T06:53:22;24.13;;;17.27;;
52992;SDS011;38875;52.216;21.040;2022-08-18T06:56:18;26.15;;;16.92;;
52992;SDS011;38875;52.216;21.040;2022-08-18T06:58:50;22.73;;;17.30;;
52992;SDS011;38875;52.216;21.040;2022-08-18T07:01:19;23.08;;;16.95;;
52992;SDS011;38875;52.216;21.040;2022-08-18T07:03:49;28.20;;;16.95;;
52992;SDS011;38875;52.216;21.040;2022-08-18T07:08:48;25.27;;;16.55;;
52992;SDS011;38875;52.216;21.040;2022-08-18T07:13:42;19.17;;;13.88;;
52992;SDS011;38875;52.216;21.040;2022-08-18T07:18:53;26.00;;;13.73;;
52992;SDS011;38875;52.216;21.040;2022-08-18T07:21:24;19.90;;;11.50;;
52992;SDS011;38875;52.216;21.040;2022-08-18T07:24:03;17.80;;;11.00;;
52992;SDS011;38875;52.216;21.040;2022-08-18T07:26:56;13.43;;;9.77;;
52992;SDS011;38875;52.216;21.040;2022-08-18T07:29:25;15.05;;;10.30;;
52992;SDS011;38875;52.216;21.040;2022-08-18T07:31:53;15.32;;;9.65;;
52992;SDS011;38875;52.216;21.040;2022-08-18T07:34:33;15.30;;;9.55;;
52992;SDS011;38875;52.216;21.040;2022-08-18T07:39:54;16.10;;;9.45;;
52992;SDS011;38875;52.216;21.040;2022-08-18T07:42:34;12.48;;;7.95;;
52992;SDS011;38875;52.216;21.040;2022-08-18T07:47:58;13.93;;;8.93;;
52992;SDS011;38875;52.216;21.040;2022-08-18T07:50:32;15.23;;;9.05;;
52992;SDS011;38875;52.216;21.040;2022-08-18T07:53:26;15.05;;;8.75;;
52992;SDS011;38875;52.216;21.040;2022-08-18T07:56:05;22.30;;;8.73;;
52992;SDS011;38875;52.216;21.040;2022-08-18T07:58:42;12.65;;;7.72;;
52992;SDS011;38875;52.216;21.040;2022-08-18T08:07:23;16.42;;;8.60;;
52992;SDS011;38875;52.216;21.040;2022-08-18T08:12:53;13.65;;;8.30;;
52992;SDS011;38875;52.216;21.040;2022-08-18T08:15:38;11.93;;;8.43;;
52992;SDS011;38875;52.216;21.040;2022-08-18T08:18:18;14.20;;;8.52;;
52992;SDS011;38875;52.216;21.040;2022-08-18T08:20:56;12.40;;;8.48;;
52992;SDS011;38875;52.216;21.040;2022-08-18T08:23:33;13.98;;;10.00;;
52992;SDS011;38875;52.216;21.040;2022-08-18T08:29:09;16.60;;;9.95;;
52992;SDS011;38875;52.216;21.040;2022-08-18T08:31:57;14.40;;;9.45;;
52992;SDS011;38875;52.216;21.040;2022-08-18T08:37:18;14.00;;;9.00;;
52992;SDS011;38875;52.216;21.040;2022-08-18T08:39:55;17.45;;;9.27;;
52992;SDS011;38875;52.216;21.040;2022-08-18T08:42:48;14.85;;;9.07;;
52992;SDS011;38875;52.216;21.040;2022-08-18T08:45:24;14.88;;;9.57;;
52992;SDS011;38875;52.216;21.040;2022-08-18T08:50:24;14.65;;;8.43;;
52992;SDS011;38875;52.216;21.040;2022-08-18T08:52:53;14.18;;;9.20;;
52992;SDS011;38875;52.216;21.040;2022-08-18T08:55:28;15.40;;;9.07;;
52992;SDS011;38875;52.216;21.040;2022-08-18T08:58:01;12.88;;;8.50;;
52992;SDS011;38875;52.216;21.040;2022-08-18T09:00:27;14.00;;;8.77;;
52992;SDS011;38875;52.216;21.040;2022-08-18T09:11:18;12.43;;;9.05;;
52992;SDS011;38875;52.216;21.040;2022-08-18T09:19:27;15.10;;;8.55;;
52992;SDS011;38875;52.216;21.040;2022-08-18T09:24:57;17.50;;;8.63;;
52992;SDS011;38875;52.216;21.040;2022-08-18T09:29:59;14.43;;;8.85;;
52992;SDS011;38875;52.216;21.040;2022-08-18T09:35:13;14.77;;;8.60;;
52992;SDS011;38875;52.216;21.040;2022-08-18T09:40:45;12.85;;;8.15;;
52992;SDS011;38875;52.216;21.040;2022-08-18T09:46:48;11.95;;;7.47;;
52992;SDS011;38875;52.216;21.040;2022-08-18T09:51:50;15.00;;;7.50;;
52992;SDS011;38875;52.216;21.040;2022-08-18T09:54:25;12.88;;;7.47;;
52992;SDS011;38875;52.216;21.040;2022-08-18T10:04:39;12.02;;;7.80;;
52992;SDS011;38875;52.216;21.040;2022-08-18T10:07:35;12.88;;;7.57;;
52992;SDS011;38875;52.216;21.040;2022-08-18T10:15:58;13.25;;;8.82;;
52992;SDS011;38875;52.216;21.040;2022-08-18T10:21:26;12.90;;;7.55;;
52992;SDS011;38875;52.216;21.040;2022-08-18T10:34:39;16.48;;;6.90;;
52992;SDS011;38875;52.216;21.040;2022-08-18T10:37:12;9.93;;;6.83;;
52992;SDS011;38875;52.216;21.040;2022-08-18T10:39:44;9.93;;;7.07;;
52992;SDS011;38875;52.216;21.040;2022-08-18T10:42:13;14.10;;;7.95;;
52992;SDS011;38875;52.216;21.040;2022-08-18T10:50:29;10.00;;;6.90;;
52992;SDS011;38875;52.216;21.040;2022-08-18T11:04:20;10.77;;;6.15;;
52992;SDS011;38875;52.216;21.040;2022-08-18T11:09:30;12.82;;;5.90;;
52992;SDS011;38875;52.216;21.040;2022-08-18T11:11:57;8.73;;;5.95;;
52992;SDS011;38875;52.216;21.040;2022-08-18T11:20:03;8.85;;;6.00;;
52992;SDS011;38875;52.216;21.040;2022-08-18T11:22:33;10.57;;;6.28;;
52992;SDS011;38875;52.216;21.040;2022-08-18T11:25:00;11.00;;;6.65;;
52992;SDS011;38875;52.216;21.040;2022-08-18T11:27:29;9.68;;;6.30;;
52992;SDS011;38875;52.216;21.040;2022-08-18T11:32:39;11.40;;;6.82;;
52992;SDS011;38875;52.216;21.040;2022-08-18T11:37:36;9.88;;;7.15;;
52992;SDS011;38875;52.216;21.040;2022-08-18T11:40:37;9.75;;;6.88;;
52992;SDS011;38875;52.216;21.040;2022-08-18T11:53:23;10.25;;;5.80;;
52992;SDS011;38875;52.216;21.040;2022-08-18T11:58:41;8.63;;;5.75;;
52992;SDS011;38875;52.216;21.040;2022-08-18T12:04:07;9.00;;;5.55;;
52992;SDS011;38875;52.216;21.040;2022-08-18T12:06:40;9.32;;;5.45;;
52992;SDS011;38875;52.216;21.040;2022-08-18T12:09:21;8.68;;;6.05;;
52992;SDS011;38875;52.216;21.040;2022-08-18T12:11:55;11.68;;;6.38;;
52992;SDS011;38875;52.216;21.040;2022-08-18T12:14:26;11.68;;;5.97;;
52992;SDS011;38875;52.216;21.040;2022-08-18T12:16:54;11.30;;;6.05;;
52992;SDS011;38875;52.216;21.040;2022-08-18T12:19:20;11.77;;;6.10;;
52992;SDS011;38875;52.216;21.040;2022-08-18T12:21:51;12.73;;;6.05;;
52992;SDS011;38875;52.216;21.040;2022-08-18T12:26:51;9.07;;;6.38;;
52992;SDS011;38875;52.216;21.040;2022-08-18T12:29:17;8.98;;;5.78;;
52992;SDS011;38875;52.216;21.040;2022-08-18T12:31:47;13.70;;;6.68;;
52992;SDS011;38875;52.216;21.040;2022-08-18T12:34:18;8.75;;;6.25;;
52992;SDS011;38875;52.216;21.040;2022-08-18T12:39:15;9.40;;;5.80;;
52992;SDS011;38875;52.216;21.040;2022-08-18T12:41:40;9.70;;;6.43;;
52992;SDS011;38875;52.216;21.040;2022-08-18T12:44:06;10.57;;;6.60;;
52992;SDS011;38875;52.216;21.040;2022-08-18T12:46:32;10.73;;;6.53;;
52992;SDS011;38875;52.216;21.040;2022-08-18T12:48:57;11.88;;;7.32;;
52992;SDS011;38875;52.216;21.040;2022-08-18T12:51:23;13.73;;;6.72;;
52992;SDS011;38875;52.216;21.040;2022-08-18T12:53:49;12.88;;;6.78;;
52992;SDS011;38875;52.216;21.040;2022-08-18T12:56:22;8.98;;;6.47;;
52992;SDS011;38875;52.216;21.040;2022-08-18T12:58:49;11.73;;;6.72;;
52992;SDS011;38875;52.216;21.040;2022-08-18T13:01:17;10.70;;;6.85;;
52992;SDS011;38875;52.216;21.040;2022-08-18T13:03:44;10.73;;;6.90;;
52992;SDS011;38875;52.216;21.040;2022-08-18T13:06:11;10.40;;;6.82;;
52992;SDS011;38875;52.216;21.040;2022-08-18T13:08:38;11.68;;;6.40;;
52992;SDS011;38875;52.216;21.040;2022-08-18T13:11:04;10.48;;;6.65;;
52992;SDS011;38875;52.216;21.040;2022-08-18T13:13:36;14.13;;;7.47;;
52992;SDS011;38875;52.216;21.040;2022-08-18T13:16:04;12.65;;;6.97;;
52992;SDS011;38875;52.216;21.040;2022-08-18T13:18:31;7.93;;;6.15;;
52992;SDS011;38875;52.216;21.040;2022-08-18T13:20:57;13.00;;;6.60;;
52992;SDS011;38875;52.216;21.040;2022-08-18T13:23:23;12.15;;;7.40;;
52992;SDS011;38875;52.216;21.040;2022-08-18T13:25:49;9.35;;;6.70;;
52992;SDS011;38875;52.216;21.040;2022-08-18T13:28:14;10.20;;;7.32;;
52992;SDS011;38875;52.216;21.040;2022-08-18T13:30:40;10.15;;;7.03;;
52992;SDS011;38875;52.216;21.040;2022-08-18T13:33:06;11.98;;;6.95;;
52992;SDS011;38875;52.216;21.040;2022-08-18T13:35:32;12.52;;;7.32;;
52992;SDS011;38875;52.216;21.040;2022-08-18T13:37:58;10.82;;;7.28;;
52992;SDS011;38875;52.216;21.040;2022-08-18T13:40:24;15.02;;;7.78;;
52992;SDS011;38875;52.216;21.040;2022-08-18T13:42:50;9.95;;;6.45;;
52992;SDS011;38875;52.216;21.040;2022-08-18T13:45:16;10.07;;;6.63;;
52992;SDS011;38875;52.216;21.040;2022-08-18T13:47:45;13.38;;;6.65;;
52992;SDS011;38875;52.216;21.040;2022-08-18T13:50:12;11.57;;;7.00;;
52992;SDS011;38875;52.216;21.040;2022-08-18T13:52:38;12.43;;;6.60;;
52992;SDS011;38875;52.216;21.040;2022-08-18T13:55:06;10.43;;;6.78;;
52992;SDS011;38875;52.216;21.040;2022-08-18T13:57:37;10.52;;;7.07;;
52992;SDS011;38875;52.216;21.040;2022-08-18T14:00:05;11.82;;;7.18;;
52992;SDS011;38875;52.216;21.040;2022-08-18T14:02:37;10.93;;;6.55;;
52992;SDS011;38875;52.216;21.040;2022-08-18T14:05:03;10.95;;;6.93;;
52992;SDS011;38875;52.216;21.040;2022-08-18T14:07:29;12.70;;;6.60;;
52992;SDS011;38875;52.216;21.040;2022-08-18T14:09:58;13.35;;;7.07;;
52992;SDS011;38875;52.216;21.040;2022-08-18T14:12:25;11.80;;;7.07;;
52992;SDS011;38875;52.216;21.040;2022-08-18T14:14:52;11.15;;;7.18;;
52992;SDS011;38875;52.216;21.040;2022-08-18T14:17:22;10.95;;;7.07;;
52992;SDS011;38875;52.216;21.040;2022-08-18T14:19:50;11.55;;;6.68;;
52992;SDS011;38875;52.216;21.040;2022-08-18T14:22:35;9.02;;;6.75;;
52992;SDS011;38875;52.216;21.040;2022-08-18T14:25:19;15.63;;;6.95;;
52992;SDS011;38875;52.216;21.040;2022-08-18T14:28:03;12.38;;;7.00;;
52992;SDS011;38875;52.216;21.040;2022-08-18T14:30:29;10.88;;;6.90;;
52992;SDS011;38875;52.216;21.040;2022-08-18T14:32:56;10.02;;;6.90;;
52992;SDS011;38875;52.216;21.040;2022-08-18T14:35:23;13.10;;;6.93;;
52992;SDS011;38875;52.216;21.040;2022-08-18T14:37:49;11.43;;;6.47;;
52992;SDS011;38875;52.216;21.040;2022-08-18T14:40:14;11.77;;;7.28;;
52992;SDS011;38875;52.216;21.040;2022-08-18T14:42:41;11.02;;;6.60;;
52992;SDS011;38875;52.216;21.040;2022-08-18T14:45:08;10.45;;;6.18;;
52992;SDS011;38875;52.216;21.040;2022-08-18T14:47:34;10.25;;;6.60;;
52992;SDS011;38875;52.216;21.040;2022-08-18T14:50:00;11.18;;;6.57;;
52992;SDS011;38875;52.216;21.040;2022-08-18T14:52:28;13.55;;;7.05;;
52992;SDS011;38875;52.216;21.040;2022-08-18T14:54:53;11.65;;;6.60;;
52992;SDS011;38875;52.216;21.040;2022-08-18T14:57:19;10.73;;;7.05;;
52992;SDS011;38875;52.216;21.040;2022-08-18T14:59:45;9.40;;;6.70;;
52992;SDS011;38875;52.216;21.040;2022-08-18T15:02:11;14.40;;;7.40;;
52992;SDS011;38875;52.216;21.040;2022-08-18T15:04:37;11.98;;;6.70;;
52992;SDS011;38875;52.216;21.040;2022-08-18T15:07:03;14.05;;;6.95;;
52992;SDS011;38875;52.216;21.040;2022-08-18T15:09:29;10.00;;;6.72;;
52992;SDS011;38875;52.216;21.040;2022-08-18T15:11:55;11.25;;;6.70;;
52992;SDS011;38875;52.216;21.040;2022-08-18T15:14:29;8.07;;;6.50;;
52992;SDS011;38875;52.216;21.040;2022-08-18T15:16:57;11.35;;;7.53;;
52992;SDS011;38875;52.216;21.040;2022-08-18T15:19:23;9.60;;;6.80;;
52992;SDS011;38875;52.216;21.040;2022-08-18T15:21:49;10.10;;;6.65;;
52992;SDS011;38875;52.216;21.040;2022-08-18T15:24:37;13.73;;;7.38;;
52992;SDS011;38875;52.216;21.040;2022-08-18T15:27:28;10.60;;;7.25;;
52992;SDS011;38875;52.216;21.040;2022-08-18T15:29:55;10.40;;;7.50;;
52992;SDS011;38875;52.216;21.040;2022-08-18T15:32:21;12.35;;;7.53;;
52992;SDS011;38875;52.216;21.040;2022-08-18T15:34:48;12.18;;;8.15;;
52992;SDS011;38875;52.216;21.040;2022-08-18T15:37:16;11.88;;;7.97;;
52992;SDS011;38875;52.216;21.040;2022-08-18T15:39:43;15.82;;;9.15;;
52992;SDS011;38875;52.216;21.040;2022-08-18T15:42:09;12.15;;;7.45;;
52992;SDS011;38875;52.216;21.040;2022-08-18T15:44:36;10.32;;;7.50;;
52992;SDS011;38875;52.216;21.040;2022-08-18T15:47:02;12.52;;;7.55;;
52992;SDS011;38875;52.216;21.040;2022-08-18T15:49:29;9.80;;;6.82;;
52992;SDS011;38875;52.216;21.040;2022-08-18T15:51:56;13.32;;;7.50;;
52992;SDS011;38875;52.216;21.040;2022-08-18T15:54:22;10.60;;;7.32;;
52992;SDS011;38875;52.216;21.040;2022-08-18T15:56:48;9.00;;;6.75;;
52992;SDS011;38875;52.216;21.040;2022-08-18T15:59:14;11.43;;;7.57;;
52992;SDS011;38875;52.216;21.040;2022-08-18T16:01:40;12.05;;;7.63;;
52992;SDS011;38875;52.216;21.040;2022-08-18T16:04:06;13.13;;;7.45;;
52992;SDS011;38875;52.216;21.040;2022-08-18T16:06:32;10.55;;;7.57;;
52992;SDS011;38875;52.216;21.040;2022-08-18T16:08:59;10.93;;;7.50;;
52992;SDS011;38875;52.216;21.040;2022-08-18T16:11:27;11.38;;;7.55;;
52992;SDS011;38875;52.216;21.040;2022-08-18T16:13:53;12.48;;;7.78;;
52992;SDS011;38875;52.216;21.040;2022-08-18T16:16:20;12.05;;;7.68;;
52992;SDS011;38875;52.216;21.040;2022-08-18T16:18:48;10.02;;;7.30;;
52992;SDS011;38875;52.216;21.040;2022-08-18T16:21:16;11.35;;;7.68;;
52992;SDS011;38875;52.216;21.040;2022-08-18T16:23:46;14.13;;;8.45;;
52992;SDS011;38875;52.216;21.040;2022-08-18T16:26:13;12.43;;;7.85;;
52992;SDS011;38875;52.216;21.040;2022-08-18T16:28:41;12.05;;;7.53;;
52992;SDS011;38875;52.216;21.040;2022-08-18T16:31:09;12.73;;;7.95;;
52992;SDS011;38875;52.216;21.040;2022-08-18T16:33:40;11.50;;;7.90;;
52992;SDS011;38875;52.216;21.040;2022-08-18T16:36:09;10.80;;;7.43;;
52992;SDS011;38875;52.216;21.040;2022-08-18T16:38:39;12.25;;;8.23;;
52992;SDS011;38875;52.216;21.040;2022-08-18T16:41:10;11.48;;;7.72;;
52992;SDS011;38875;52.216;21.040;2022-08-18T16:43:40;10.90;;;7.97;;
52992;SDS011;38875;52.216;21.040;2022-08-18T16:46:09;13.50;;;7.78;;
52992;SDS011;38875;52.216;21.040;2022-08-18T16:48:37;11.57;;;7.70;;
52992;SDS011;38875;52.216;21.040;2022-08-18T16:51:02;11.00;;;8.25;;
52992;SDS011;38875;52.216;21.040;2022-08-18T16:53:29;15.00;;;8.57;;
52992;SDS011;38875;52.216;21.040;2022-08-18T16:55:54;12.38;;;8.55;;
52992;SDS011;38875;52.216;21.040;2022-08-18T16:58:20;12.60;;;8.40;;
52992;SDS011;38875;52.216;21.040;2022-08-18T17:01:04;11.02;;;8.15;;
52992;SDS011;38875;52.216;21.040;2022-08-18T17:03:49;11.40;;;8.32;;
52992;SDS011;38875;52.216;21.040;2022-08-18T17:06:34;11.93;;;8.40;;
52992;SDS011;38875;52.216;21.040;2022-08-18T17:09:00;13.48;;;8.10;;
52992;SDS011;38875;52.216;21.040;2022-08-18T17:11:27;11.27;;;8.27;;
52992;SDS011;38875;52.216;21.040;2022-08-18T17:13:54;12.93;;;8.25;;
52992;SDS011;38875;52.216;21.040;2022-08-18T17:16:25;11.88;;;8.48;;
52992;SDS011;38875;52.216;21.040;2022-08-18T17:18:53;16.33;;;8.88;;
52992;SDS011;38875;52.216;21.040;2022-08-18T17:21:21;17.23;;;8.77;;
52992;SDS011;38875;52.216;21.040;2022-08-18T17:23:50;10.90;;;8.10;;
52992;SDS011;38875;52.216;21.040;2022-08-18T17:28:57;11.45;;;8.27;;